Time;durP1;ratioP1;P1;durP2;ratioP2;P2;SDS_P1;SDS_P2;PMS_P1;PMS_P2;Temp;Humidity;BMP_temperature;BMP_pressure;BME280_temperature;BME280_humidity;BME280_pressure;Samples;Min_cycle;Max_cycle;Signal;HPM_P1;HPM_P2
2023/08/25 00:02:30;;;;;;;4.65;2.90;;;24.20;87.20;;;;;;6271319;22;20019;-73
2023/08/25 00:05:16;;;;;;;4.05;3.00;;;24.20;87.20;;;;;;6272048;22;20090;-73
2023/08/25 00:08:03;;;;;;;3.83;3.17;;;24.20;87.30;;;;;;6272925;22;20012;-78
2023/08/25 00:10:50;;;;;;;6.88;3.40;;;24.20;87.50;;;;;;6273137;22;20027;-78
2023/08/25 00:13:36;;;;;;;4.78;3.35;;;24.20;87.30;;;;;;6272430;22;20445;-77
2023/08/25 00:16:22;;;;;;;4.75;3.25;;;24.20;87.30;;;;;;6273437;22;20135;-77
2023/08/25 00:19:08;;;;;;;4.13;3.05;;;24.20;87.10;;;;;;6272272;22;20785;-76
2023/08/25 00:21:54;;;;;;;6.10;3.40;;;24.10;87.10;;;;;;6249873;22;20016;-79
2023/08/25 00:24:40;;;;;;;4.97;3.30;;;24.10;87.20;;;;;;6272925;22;20342;-79
2023/08/25 00:27:26;;;;;;;4.70;3.03;;;24.10;87.80;;;;;;6249354;22;20330;-81
2023/08/25 00:30:12;;;;;;;4.38;3.00;;;24.10;87.40;;;;;;6270612;22;20012;-82
2023/08/25 00:32:58;;;;;;;4.38;3.15;;;24.10;87.60;;;;;;6269836;22;20023;-80
2023/08/25 00:35:44;;;;;;;5.95;3.80;;;24.00;87.50;;;;;;6272619;22;20078;-80
2023/08/25 00:38:30;;;;;;;4.43;3.50;;;24.00;87.70;;;;;;6271993;22;20012;-81
2023/08/25 00:41:15;;;;;;;3.70;3.17;;;24.00;87.70;;;;;;6272755;22;20016;-80
2023/08/25 00:44:02;;;;;;;5.22;3.58;;;24.00;87.70;;;;;;6273778;22;20015;-80
2023/08/25 00:46:49;;;;;;;5.55;3.60;;;24.00;87.80;;;;;;6273001;22;20030;-80
2023/08/25 00:49:35;;;;;;;6.53;2.90;;;24.00;87.90;;;;;;6278593;22;20039;-80
2023/08/25 00:52:22;;;;;;;4.45;3.17;;;24.00;88.00;;;;;;6279266;22;20019;-80
2023/08/25 00:55:09;;;;;;;6.13;3.47;;;23.90;88.20;;;;;;6279884;22;20008;-80
2023/08/25 00:57:55;;;;;;;4.35;3.20;;;23.90;88.40;;;;;;6276144;22;20027;-80
2023/08/25 01:00:43;;;;;;;3.60;2.95;;;23.90;88.40;;;;;;6273701;22;20036;-79
2023/08/25 01:03:29;;;;;;;6.93;3.03;;;23.90;88.60;;;;;;6275001;22;20007;-80
2023/08/25 01:06:15;;;;;;;6.43;3.00;;;23.90;88.70;;;;;;6273778;22;20030;-80
2023/08/25 01:09:01;;;;;;;4.72;3.40;;;23.90;88.70;;;;;;6273563;22;20014;-80
2023/08/25 01:12:04;;;;;;;5.03;3.33;;;23.90;88.70;;;;;;6273760;22;20026;-80
2023/08/25 01:15:04;;;;;;;4.70;3.22;;;23.90;88.80;;;;;;6275073;22;20007;-73
2023/08/25 01:17:58;;;;;;;4.57;3.33;;;23.90;88.80;;;;;;6272907;22;20012;-73
2023/08/25 01:20:48;;;;;;;10.52;3.20;;;23.90;88.80;;;;;;6274651;22;20015;-73
2023/08/25 01:23:51;;;;;;;4.82;3.15;;;23.90;89.00;;;;;;6273128;22;20559;-73
2023/08/25 01:26:38;;;;;;;7.93;3.22;;;23.90;88.90;;;;;;6273146;22;20400;-73
2023/08/25 01:29:24;;;;;;;6.85;3.30;;;23.90;89.00;;;;;;6272800;22;20011;-73
2023/08/25 01:32:10;;;;;;;5.72;3.80;;;23.80;88.90;;;;;;6274874;22;20027;-73
2023/08/25 01:34:56;;;;;;;5.20;2.92;;;23.90;89.10;;;;;;6273812;22;20437;-73
2023/08/25 01:37:49;;;;;;;4.70;3.25;;;23.80;89.10;;;;;;6273558;22;20090;-71
2023/08/25 01:40:47;;;;;;;5.38;3.45;;;23.80;89.30;;;;;;6273855;22;20016;-71
2023/08/25 01:43:37;;;;;;;4.25;3.47;;;23.80;89.40;;;;;;6272978;22;20014;-71
2023/08/25 01:46:24;;;;;;;6.20;3.88;;;23.80;89.60;;;;;;6273358;22;20039;-71
2023/08/25 01:49:13;;;;;;;4.30;3.50;;;23.80;89.80;;;;;;6274319;22;20008;-70
2023/08/25 01:52:00;;;;;;;5.35;3.35;;;23.80;90.00;;;;;;6274690;22;20069;-71
2023/08/25 01:54:49;;;;;;;4.63;3.22;;;23.70;90.00;;;;;;6272569;22;20008;-71
2023/08/25 01:57:35;;;;;;;4.28;3.53;;;23.80;90.10;;;;;;6273765;22;20099;-71
2023/08/25 02:00:21;;;;;;;3.80;3.15;;;23.70;90.40;;;;;;6272212;22;20050;-71
2023/08/25 02:03:07;;;;;;;5.07;3.67;;;23.80;90.30;;;;;;6273719;22;20030;-71
2023/08/25 02:05:53;;;;;;;9.05;3.92;;;23.70;90.30;;;;;;6274075;22;20035;-71
2023/08/25 02:08:39;;;;;;;7.50;3.55;;;23.70;90.30;;;;;;6272401;22;20114;-71
2023/08/25 02:11:25;;;;;;;5.30;3.55;;;23.70;90.40;;;;;;6273485;22;20098;-71
2023/08/25 02:14:11;;;;;;;4.65;3.60;;;23.70;90.50;;;;;;6274973;22;20015;-71
2023/08/25 02:16:57;;;;;;;5.10;3.65;;;23.70;90.50;;;;;;6273384;22;20094;-71
2023/08/25 02:19:43;;;;;;;10.00;3.95;;;23.70;90.60;;;;;;6273462;22;20103;-71
2023/08/25 02:22:28;;;;;;;5.03;3.70;;;23.70;90.60;;;;;;6273549;22;20018;-71
2023/08/25 02:25:14;;;;;;;6.60;3.92;;;23.70;90.70;;;;;;6272903;22;20011;-71
2023/08/25 02:28:01;;;;;;;6.10;3.33;;;23.70;90.80;;;;;;6270910;22;20081;-71
2023/08/25 02:30:47;;;;;;;7.78;3.72;;;23.70;90.90;;;;;;6271839;22;20014;-71
2023/08/25 02:33:34;;;;;;;7.13;3.70;;;23.70;90.90;;;;;;6272845;22;20574;-71
2023/08/25 02:36:20;;;;;;;5.18;4.20;;;23.70;90.90;;;;;;6272018;22;20384;-71
2023/08/25 02:39:05;;;;;;;4.82;3.67;;;23.70;90.90;;;;;;6272781;22;20472;-71
2023/08/25 02:41:51;;;;;;;6.75;4.13;;;23.70;90.90;;;;;;6272634;22;20090;-71
2023/08/25 02:44:38;;;;;;;4.03;3.60;;;23.70;91.00;;;;;;6272346;22;20007;-71
2023/08/25 02:47:24;;;;;;;5.50;4.05;;;23.70;91.00;;;;;;6274542;22;20012;-71
2023/08/25 02:50:10;;;;;;;7.90;4.85;;;23.70;91.00;;;;;;6275157;22;20046;-71
2023/08/25 02:52:56;;;;;;;9.88;5.03;;;23.70;91.10;;;;;;6273360;22;20015;-71
2023/08/25 02:55:42;;;;;;;4.68;3.92;;;23.70;91.40;;;;;;6274193;22;20018;-71
2023/08/25 02:58:28;;;;;;;7.97;3.53;;;23.80;91.20;;;;;;6273373;22;20091;-71
2023/08/25 03:01:14;;;;;;;5.10;3.70;;;23.70;91.30;;;;;;6273767;22;20003;-71
2023/08/25 03:04:00;;;;;;;7.47;3.78;;;23.80;91.30;;;;;;6273468;22;20040;-74
2023/08/25 03:06:47;;;;;;;5.57;4.03;;;23.70;91.30;;;;;;6272417;22;20066;-71
2023/08/25 03:09:33;;;;;;;4.88;4.30;;;23.70;91.40;;;;;;6272537;22;20039;-73
2023/08/25 03:12:19;;;;;;;5.57;4.00;;;23.70;91.40;;;;;;6272747;22;20020;-73
2023/08/25 03:15:06;;;;;;;8.25;3.97;;;23.70;91.50;;;;;;6272904;22;20038;-72
2023/08/25 03:17:52;;;;;;;5.30;3.60;;;23.70;91.50;;;;;;6273654;22;20337;-72
2023/08/25 03:20:38;;;;;;;6.70;3.90;;;23.70;91.60;;;;;;6273352;22;20015;-72
2023/08/25 03:23:24;;;;;;;8.05;4.18;;;23.70;91.70;;;;;;6272561;22;20349;-72
2023/08/25 03:26:10;;;;;;;5.25;3.53;;;23.60;91.70;;;;;;6273931;22;20058;-70
2023/08/25 03:28:55;;;;;;;5.88;3.60;;;23.60;91.80;;;;;;6272741;22;20007;-70
2023/08/25 03:31:41;;;;;;;6.18;4.20;;;23.60;91.80;;;;;;6272883;22;20026;-70
2023/08/25 03:34:29;;;;;;;5.72;4.10;;;23.60;91.90;;;;;;6271351;22;20015;-70
2023/08/25 03:37:15;;;;;;;5.85;4.07;;;23.60;91.90;;;;;;6272316;22;20011;-70
2023/08/25 03:40:01;;;;;;;5.80;4.20;;;23.60;92.00;;;;;;6272220;22;20043;-70
2023/08/25 03:42:47;;;;;;;7.18;4.43;;;23.60;92.00;;;;;;6272748;22;20019;-70
2023/08/25 03:45:35;;;;;;;7.45;4.03;;;23.60;92.00;;;;;;6271039;22;20414;-70
2023/08/25 03:48:21;;;;;;;4.32;3.60;;;23.60;92.10;;;;;;6270287;22;20007;-70
2023/08/25 03:51:07;;;;;;;8.32;4.55;;;23.60;92.10;;;;;;6271872;22;20024;-70
2023/08/25 03:53:53;;;;;;;8.35;4.38;;;23.60;92.20;;;;;;6272048;22;20504;-70
2023/08/25 03:56:39;;;;;;;6.55;4.88;;;23.60;92.20;;;;;;6273172;22;20625;-70
2023/08/25 03:59:25;;;;;;;4.80;3.78;;;23.60;92.30;;;;;;6272310;22;20106;-70
2023/08/25 04:02:11;;;;;;;6.68;4.30;;;23.50;92.30;;;;;;6270730;22;20016;-68
2023/08/25 04:04:57;;;;;;;5.60;4.18;;;23.50;92.40;;;;;;6272003;22;20441;-74
2023/08/25 04:07:43;;;;;;;5.35;4.22;;;23.50;92.40;;;;;;6271232;22;20008;-74
2023/08/25 04:10:29;;;;;;;5.45;4.05;;;23.50;92.50;;;;;;6271820;22;20018;-74
2023/08/25 04:13:14;;;;;;;9.95;4.13;;;23.50;92.50;;;;;;6272150;22;20396;-76
2023/08/25 04:16:04;;;;;;;6.35;4.15;;;23.50;92.50;;;;;;6273219;22;20086;-76
2023/08/25 04:18:50;;;;;;;5.93;4.13;;;23.50;92.50;;;;;;6271273;22;20090;-69
2023/08/25 04:21:35;;;;;;;8.60;3.88;;;23.50;92.60;;;;;;6249648;22;20386;-78
2023/08/25 04:24:21;;;;;;;6.10;4.47;;;23.50;92.70;;;;;;6270545;22;20011;-79
2023/08/25 04:27:08;;;;;;;10.32;4.30;;;23.50;92.80;;;;;;6271057;22;20011;-76
2023/08/25 04:29:54;;;;;;;6.07;4.38;;;23.50;92.80;;;;;;6272202;22;20011;-78
2023/08/25 04:32:39;;;;;;;6.57;4.53;;;23.50;92.90;;;;;;6250723;22;20031;-78
2023/08/25 04:35:25;;;;;;;8.43;5.03;;;23.50;93.00;;;;;;6250072;22;20008;-78
2023/08/25 04:38:11;;;;;;;6.43;4.35;;;23.40;93.00;;;;;;6272174;22;20019;-76
2023/08/25 04:40:57;;;;;;;5.15;4.40;;;23.40;93.00;;;;;;6272228;22;20047;-76
2023/08/25 04:43:43;;;;;;;5.53;4.03;;;23.50;93.00;;;;;;6271660;22;20442;-76
2023/08/25 04:46:29;;;;;;;5.88;4.15;;;23.50;93.10;;;;;;6271986;22;20014;-76
2023/08/25 04:49:15;;;;;;;7.85;4.40;;;23.50;93.10;;;;;;6270947;22;20015;-76
2023/08/25 04:52:01;;;;;;;6.05;4.40;;;23.50;93.10;;;;;;6272144;22;20015;-73
2023/08/25 04:54:47;;;;;;;4.28;3.70;;;23.60;93.20;;;;;;6250832;22;20083;-75
2023/08/25 04:57:34;;;;;;;7.07;4.43;;;23.60;93.30;;;;;;6271921;22;20016;-78
2023/08/25 05:00:20;;;;;;;5.38;4.15;;;23.60;93.30;;;;;;6270134;22;20008;-75
2023/08/25 05:03:07;;;;;;;6.95;4.07;;;23.60;93.40;;;;;;6249635;22;20014;-76
2023/08/25 05:05:53;;;;;;;5.43;4.18;;;23.70;93.50;;;;;;6269622;22;20016;-76
2023/08/25 05:08:39;;;;;;;6.40;4.13;;;23.70;93.50;;;;;;6271106;22;20638;-76
2023/08/25 05:11:25;;;;;;;8.10;4.35;;;23.70;93.60;;;;;;6272384;22;20449;-75
2023/08/25 05:14:11;;;;;;;7.47;4.65;;;23.70;93.50;;;;;;6271743;22;20011;-75
2023/08/25 05:16:58;;;;;;;6.10;3.97;;;23.70;93.50;;;;;;6249086;22;20012;-75
2023/08/25 05:19:44;;;;;;;5.82;4.20;;;23.70;93.50;;;;;;6272278;22;20018;-77
2023/08/25 05:22:30;;;;;;;6.85;4.95;;;23.70;93.50;;;;;;6269903;22;20400;-77
2023/08/25 05:25:17;;;;;;;6.47;4.90;;;23.70;93.40;;;;;;6272332;22;20018;-77
2023/08/25 05:28:03;;;;;;;6.25;4.65;;;23.70;93.50;;;;;;6271022;22;20090;-77
2023/08/25 05:30:49;;;;;;;5.88;4.35;;;23.80;93.50;;;;;;6252661;22;20095;-76
2023/08/25 05:33:35;;;;;;;4.53;3.95;;;23.80;93.50;;;;;;6250580;22;20015;-75
2023/08/25 05:36:21;;;;;;;5.80;4.38;;;23.80;93.50;;;;;;6274244;22;20058;-76
2023/08/25 05:39:07;;;;;;;6.88;4.88;;;23.90;93.40;;;;;;6273126;22;20095;-77
2023/08/25 05:41:53;;;;;;;5.95;4.32;;;23.90;93.40;;;;;;6251247;22;20010;-76
2023/08/25 05:44:39;;;;;;;7.05;4.55;;;24.00;93.40;;;;;;6274440;22;20011;-78
2023/08/25 05:47:25;;;;;;;5.25;4.10;;;24.00;93.30;;;;;;6272570;22;20061;-77
2023/08/25 05:50:11;;;;;;;8.30;4.68;;;24.10;93.30;;;;;;6273996;22;20042;-72
2023/08/25 05:52:57;;;;;;;6.55;4.88;;;24.10;93.20;;;;;;6272792;22;20026;-71
2023/08/25 05:55:43;;;;;;;5.47;4.07;;;24.10;93.30;;;;;;6274150;22;20014;-71
2023/08/25 05:58:29;;;;;;;6.75;4.10;;;24.10;93.30;;;;;;6272528;22;20011;-69
2023/08/25 06:01:15;;;;;;;5.47;4.38;;;24.10;93.30;;;;;;6273128;22;20011;-71
2023/08/25 06:04:03;;;;;;;8.18;4.00;;;24.10;93.20;;;;;;6273596;22;20007;-71
2023/08/25 06:06:49;;;;;;;5.45;4.28;;;24.10;93.20;;;;;;6273118;22;20090;-70
2023/08/25 06:09:35;;;;;;;6.60;4.22;;;24.10;93.10;;;;;;6272984;22;20011;-71
2023/08/25 06:12:21;;;;;;;7.10;4.32;;;24.10;93.10;;;;;;6273040;22;20020;-70
2023/08/25 06:15:09;;;;;;;6.95;4.13;;;24.10;93.00;;;;;;6278175;22;20012;-70
2023/08/25 06:17:56;;;;;;;8.52;5.15;;;24.10;93.00;;;;;;6274437;22;20026;-71
2023/08/25 06:20:42;;;;;;;5.20;4.03;;;24.10;92.80;;;;;;6272124;22;20016;-70
2023/08/25 06:23:28;;;;;;;5.85;4.55;;;24.10;92.70;;;;;;6273420;22;20015;-70
2023/08/25 06:26:14;;;;;;;8.82;4.60;;;24.20;92.70;;;;;;6273608;22;20022;-70
2023/08/25 06:29:00;;;;;;;6.45;4.57;;;24.20;92.70;;;;;;6271928;22;20003;-70
2023/08/25 06:31:45;;;;;;;6.05;4.50;;;24.20;92.60;;;;;;6273115;22;20023;-70
2023/08/25 06:34:33;;;;;;;7.53;4.45;;;24.20;92.60;;;;;;6274387;22;20012;-71
2023/08/25 06:37:19;;;;;;;6.35;4.65;;;24.20;92.50;;;;;;6273712;22;20354;-70
2023/08/25 06:40:07;;;;;;;5.68;4.53;;;24.30;92.50;;;;;;6272228;22;20436;-70
2023/08/25 06:42:53;;;;;;;5.72;4.45;;;24.30;92.50;;;;;;6269723;22;20069;-70
2023/08/25 06:45:39;;;;;;;6.97;4.85;;;24.30;92.40;;;;;;6273636;22;20004;-70
2023/08/25 06:48:25;;;;;;;7.43;4.65;;;24.40;92.40;;;;;;6272839;22;20016;-70
2023/08/25 06:51:11;;;;;;;7.38;4.85;;;24.40;92.40;;;;;;6273429;22;20508;-70
2023/08/25 06:54:01;;;;;;;7.43;4.55;;;24.50;92.30;;;;;;6272563;22;20007;-70
2023/08/25 06:56:47;;;;;;;7.65;5.07;;;24.50;92.20;;;;;;6271271;22;20008;-68
2023/08/25 06:59:33;;;;;;;4.45;3.75;;;24.50;92.10;;;;;;6271299;22;20007;-68
2023/08/25 07:02:19;;;;;;;6.47;4.30;;;24.60;92.10;;;;;;6272873;22;20004;-67
2023/08/25 07:05:05;;;;;;;9.10;4.40;;;24.60;91.90;;;;;;6270940;22;20132;-67
2023/08/25 07:07:51;;;;;;;7.00;4.55;;;24.70;91.90;;;;;;6271408;22;20008;-68
2023/08/25 07:10:37;;;;;;;5.95;4.40;;;24.70;91.80;;;;;;6272408;22;20087;-68
2023/08/25 07:13:23;;;;;;;5.68;3.88;;;24.80;91.50;;;;;;6272508;22;19999;-67
2023/08/25 07:16:09;;;;;;;5.97;4.18;;;24.80;91.40;;;;;;6270163;22;20011;-67
2023/08/25 07:18:55;;;;;;;9.65;5.10;;;24.90;91.40;;;;;;6271184;22;20008;-65
2023/08/25 07:21:41;;;;;;;6.32;4.78;;;24.90;91.30;;;;;;6272848;22;20016;-67
2023/08/25 07:24:27;;;;;;;7.97;4.43;;;25.00;91.20;;;;;;6272556;22;20004;-68
2023/08/25 07:27:13;;;;;;;6.15;4.68;;;25.00;91.20;;;;;;6271352;22;20014;-68
2023/08/25 07:29:59;;;;;;;6.63;4.63;;;25.10;91.20;;;;;;6270691;22;20322;-67
2023/08/25 07:32:45;;;;;;;8.38;4.63;;;25.10;91.10;;;;;;6250107;22;20015;-68
2023/08/25 07:35:35;;;;;;;9.10;5.00;;;25.20;90.90;;;;;;6268582;22;20091;-68
2023/08/25 07:38:20;;;;;;;7.15;4.75;;;25.30;90.90;;;;;;6267862;22;20065;-68
2023/08/25 07:41:06;;;;;;;6.65;3.95;;;25.30;90.70;;;;;;6269675;22;20030;-67
2023/08/25 07:43:52;;;;;;;9.90;5.30;;;25.40;90.60;;;;;;6267971;22;20012;-68
2023/08/25 07:46:39;;;;;;;7.18;5.40;;;25.40;90.40;;;;;;6266304;22;20012;-67
2023/08/25 07:49:25;;;;;;;9.80;4.93;;;25.50;90.40;;;;;;6267458;22;20011;-67
2023/08/25 07:52:10;;;;;;;11.38;4.30;;;25.50;90.30;;;;;;6267113;22;20016;-67
2023/08/25 07:54:56;;;;;;;5.55;3.95;;;25.60;90.10;;;;;;6271492;22;20015;-68
2023/08/25 07:57:42;;;;;;;10.48;4.28;;;25.60;90.10;;;;;;6272134;22;20007;-68
2023/08/25 08:00:29;;;;;;;5.60;3.80;;;25.70;90.00;;;;;;6272789;22;20012;-68
2023/08/25 08:03:15;;;;;;;6.15;4.68;;;25.80;89.80;;;;;;6271545;22;20007;-68
2023/08/25 08:06:00;;;;;;;6.53;4.78;;;25.80;89.70;;;;;;6270592;22;20090;-68
2023/08/25 08:08:46;;;;;;;8.00;4.15;;;25.90;89.40;;;;;;6271240;22;20035;-67
2023/08/25 08:11:34;;;;;;;5.63;3.88;;;25.90;89.40;;;;;;6271850;22;20361;-68
2023/08/25 08:14:19;;;;;;;7.53;4.53;;;26.00;89.20;;;;;;6272492;22;20062;-69
2023/08/25 08:17:05;;;;;;;7.25;4.95;;;26.10;89.10;;;;;;6270407;22;20353;-68
2023/08/25 08:19:51;;;;;;;10.05;5.03;;;26.10;89.10;;;;;;6272337;22;20073;-68
2023/08/25 08:22:39;;;;;;;8.90;4.55;;;26.20;89.00;;;;;;6270642;22;20011;-69
2023/08/25 08:25:25;;;;;;;5.13;3.60;;;26.20;88.70;;;;;;6272328;22;20003;-69
2023/08/25 08:28:11;;;;;;;7.00;5.05;;;26.30;88.40;;;;;;6271133;22;20402;-69
2023/08/25 08:30:58;;;;;;;6.10;3.97;;;26.30;88.20;;;;;;6273344;22;20029;-70
2023/08/25 08:33:48;;;;;;;6.70;4.30;;;26.40;88.00;;;;;;6271321;22;20011;-69
2023/08/25 08:36:34;;;;;;;7.20;4.60;;;26.40;87.70;;;;;;6272026;22;20007;-69
2023/08/25 08:39:21;;;;;;;9.82;4.70;;;26.50;87.60;;;;;;6272303;22;20030;-69
2023/08/25 08:42:11;;;;;;;11.35;5.03;;;26.60;87.60;;;;;;6271079;22;20035;-69
2023/08/25 08:45:03;;;;;;;6.10;4.55;;;26.70;87.50;;;;;;6272176;22;20016;-69
2023/08/25 08:47:49;;;;;;;5.55;4.20;;;26.80;87.40;;;;;;6270201;22;20014;-69
2023/08/25 08:50:35;;;;;;;7.43;5.20;;;26.90;87.00;;;;;;6272640;22;20016;-69
2023/08/25 08:53:22;;;;;;;6.63;4.40;;;26.90;87.00;;;;;;6271002;22;20232;-69
2023/08/25 08:56:08;;;;;;;6.38;4.03;;;27.00;86.50;;;;;;6247656;22;20636;-69
2023/08/25 08:58:54;;;;;;;6.28;3.80;;;27.00;85.70;;;;;;6271598;22;20007;-70
2023/08/25 09:01:41;;;;;;;10.98;4.45;;;27.10;85.70;;;;;;6270135;22;20011;-70
2023/08/25 09:04:28;;;;;;;4.07;3.40;;;27.20;85.60;;;;;;6272340;22;20011;-70
2023/08/25 09:07:14;;;;;;;6.65;3.85;;;27.20;85.30;;;;;;6272529;22;20445;-68
2023/08/25 09:10:01;;;;;;;11.88;4.43;;;27.30;85.30;;;;;;6272284;22;20011;-70
2023/08/25 09:12:47;;;;;;;5.82;4.65;;;27.40;85.40;;;;;;6274402;22;20059;-70
2023/08/25 09:15:34;;;;;;;5.30;3.75;;;27.40;84.90;;;;;;6273410;22;20081;-69
2023/08/25 09:18:20;;;;;;;5.13;3.50;;;27.50;85.00;;;;;;6273172;22;20011;-70
2023/08/25 09:21:18;;;;;;;5.43;3.92;;;27.60;84.00;;;;;;6250368;22;20011;-70
2023/08/25 09:24:04;;;;;;;7.47;4.55;;;27.60;84.30;;;;;;6272358;22;20012;-70
2023/08/25 09:26:51;;;;;;;4.93;3.40;;;27.60;84.00;;;;;;6272842;22;20011;-68
2023/08/25 09:29:41;;;;;;;10.50;3.83;;;27.70;83.90;;;;;;6273206;22;20018;-69
2023/08/25 09:32:28;;;;;;;5.50;4.18;;;27.80;83.80;;;;;;6270537;22;20442;-69
2023/08/25 09:35:18;;;;;;;9.02;4.10;;;27.90;83.40;;;;;;6270961;22;20074;-69
2023/08/25 09:38:04;;;;;;;4.18;3.45;;;28.00;83.50;;;;;;6273389;22;20011;-69
2023/08/25 09:40:50;;;;;;;6.60;4.32;;;28.00;83.20;;;;;;6273660;22;20024;-69
2023/08/25 09:43:38;;;;;;;5.57;3.50;;;28.10;83.60;;;;;;6274677;22;20038;-70
2023/08/25 09:46:32;;;;;;;9.10;4.05;;;28.30;83.00;;;;;;6277315;22;20007;-69
2023/08/25 09:49:18;;;;;;;5.68;3.60;;;28.40;83.50;;;;;;6272791;22;20086;-69
2023/08/25 09:52:06;;;;;;;4.40;3.45;;;28.60;84.20;;;;;;6273068;22;20020;-69
2023/08/25 09:54:52;;;;;;;4.97;3.58;;;28.70;84.40;;;;;;6273020;22;20007;-69
2023/08/25 09:57:39;;;;;;;6.07;3.92;;;28.80;83.70;;;;;;6272447;22;20024;-69
2023/08/25 10:00:26;;;;;;;6.80;3.85;;;29.00;83.30;;;;;;6273057;22;20018;-69
2023/08/25 10:03:12;;;;;;;4.60;3.35;;;29.00;83.30;;;;;;6270476;22;20030;-69
2023/08/25 10:06:00;;;;;;;7.53;3.67;;;29.10;82.90;;;;;;6248393;22;20438;-69
2023/08/25 10:08:47;;;;;;;13.63;3.85;;;29.20;82.70;;;;;;6273214;22;20015;-69
2023/08/25 10:11:40;;;;;;;6.00;3.67;;;29.30;82.20;;;;;;6271572;22;20020;-69
2023/08/25 10:14:29;;;;;;;5.65;3.22;;;29.30;82.20;;;;;;6274004;22;20007;-69
2023/08/25 10:17:15;;;;;;;6.05;3.35;;;29.30;81.70;;;;;;6272695;22;20082;-69
2023/08/25 10:20:05;;;;;;;4.85;3.45;;;29.40;81.00;;;;;;6273614;22;20022;-68
2023/08/25 10:22:53;;;;;;;8.07;3.70;;;29.50;81.40;;;;;;6269912;22;20042;-68
2023/08/25 10:25:39;;;;;;;4.05;3.58;;;29.60;81.90;;;;;;6272305;22;20027;-68
2023/08/25 10:28:26;;;;;;;5.78;3.50;;;29.60;81.80;;;;;;6270601;22;20449;-68
2023/08/25 10:31:13;;;;;;;5.60;3.92;;;29.70;82.10;;;;;;6272104;22;20018;-68
2023/08/25 10:33:59;;;;;;;4.63;3.40;;;29.80;81.60;;;;;;6270504;22;20011;-68
2023/08/25 10:36:48;;;;;;;6.30;3.72;;;29.80;81.10;;;;;;6268675;22;20012;-68
2023/08/25 10:39:59;;;;;;;6.03;3.78;;;29.90;80.80;;;;;;6270214;22;20074;-69
2023/08/25 10:42:45;;;;;;;4.20;3.28;;;29.90;80.90;;;;;;6270164;22;20079;-69
2023/08/25 10:45:35;;;;;;;4.25;3.17;;;29.90;80.60;;;;;;6272235;22;20017;-68
2023/08/25 10:48:24;;;;;;;6.47;3.63;;;30.00;80.80;;;;;;6272768;22;20004;-68
2023/08/25 10:51:11;;;;;;;5.80;3.72;;;30.00;80.30;;;;;;6272407;22;20086;-68
2023/08/25 10:53:57;;;;;;;4.93;3.05;;;30.00;80.20;;;;;;6272671;22;20011;-68
2023/08/25 10:56:43;;;;;;;5.55;3.38;;;30.00;80.40;;;;;;6270891;22;20030;-69
2023/08/25 10:59:29;;;;;;;5.35;3.35;;;30.00;80.30;;;;;;6271730;22;20035;-68
2023/08/25 11:02:34;;;;;;;7.85;3.75;;;30.00;80.10;;;;;;6271385;22;20095;-68
2023/08/25 11:05:26;;;;;;;5.32;3.80;;;30.00;79.80;;;;;;6269387;22;20105;-69
2023/08/25 11:08:28;;;;;;;5.95;3.00;;;30.00;80.20;;;;;;6272068;22;20065;-69
2023/08/25 11:11:17;;;;;;;6.82;3.88;;;30.00;80.30;;;;;;6272643;22;20069;-69
2023/08/25 11:14:03;;;;;;;5.65;3.28;;;30.00;80.00;;;;;;6269744;22;20018;-68
2023/08/25 11:16:50;;;;;;;7.03;3.90;;;30.00;80.00;;;;;;6270715;22;20011;-68
2023/08/25 11:19:39;;;;;;;5.32;3.63;;;30.00;80.10;;;;;;6272027;22;20311;-68
2023/08/25 11:22:24;;;;;;;4.88;3.45;;;30.00;80.20;;;;;;6271607;22;20012;-68
2023/08/25 11:25:15;;;;;;;7.07;3.60;;;30.00;80.40;;;;;;6271826;22;20015;-68
2023/08/25 11:28:03;;;;;;;5.90;3.53;;;30.00;80.50;;;;;;6271632;22;20008;-68
2023/08/25 11:30:49;;;;;;;6.00;3.40;;;30.00;80.20;;;;;;6272265;22;20432;-68
2023/08/25 11:33:35;;;;;;;4.72;3.30;;;30.00;80.00;;;;;;6272189;22;20015;-68
2023/08/25 11:36:24;;;;;;;6.35;3.60;;;30.00;79.50;;;;;;6269747;22;20438;-68
2023/08/25 11:39:18;;;;;;;13.63;4.25;;;29.90;80.10;;;;;;6270152;22;20015;-68
2023/08/25 11:42:04;;;;;;;5.57;3.33;;;30.00;80.30;;;;;;6269618;22;20277;-68
2023/08/25 11:44:52;;;;;;;8.73;3.63;;;30.00;79.90;;;;;;6269922;22;20086;-68
2023/08/25 11:47:39;;;;;;;10.55;3.63;;;30.10;79.90;;;;;;6269042;22;20016;-68
2023/08/25 11:50:25;;;;;;;4.68;3.10;;;30.10;80.10;;;;;;6270001;22;20437;-69
2023/08/25 11:53:11;;;;;;;6.05;3.83;;;30.10;79.70;;;;;;6270088;22;20058;-69
2023/08/25 11:55:58;;;;;;;5.60;3.50;;;30.10;80.00;;;;;;6271003;22;20030;-68
2023/08/25 11:58:47;;;;;;;5.55;3.42;;;30.10;79.70;;;;;;6271463;22;20023;-68
2023/08/25 12:01:35;;;;;;;5.10;3.50;;;30.20;79.50;;;;;;6267824;22;20157;-70
2023/08/25 12:04:25;;;;;;;4.40;3.25;;;30.20;79.80;;;;;;6272626;22;20341;-69
2023/08/25 12:07:11;;;;;;;5.22;3.40;;;30.30;79.90;;;;;;6271292;22;20019;-68
2023/08/25 12:10:05;;;;;;;3.67;3.10;;;30.30;79.50;;;;;;6271721;22;20004;-68
2023/08/25 12:12:53;;;;;;;4.25;3.20;;;30.40;79.50;;;;;;6268654;22;20027;-68
2023/08/25 12:15:41;;;;;;;4.90;3.05;;;30.30;79.20;;;;;;6270535;22;20419;-68
2023/08/25 12:18:37;;;;;;;5.68;3.35;;;30.40;79.50;;;;;;6269693;22;20052;-68
2023/08/25 12:21:23;;;;;;;4.95;3.50;;;30.40;79.20;;;;;;6270515;22;20003;-69
2023/08/25 12:24:09;;;;;;;5.47;3.15;;;30.40;79.10;;;;;;6269641;22;20012;-69
2023/08/25 12:26:55;;;;;;;8.27;3.28;;;30.40;78.60;;;;;;6249312;22;20030;-68
2023/08/25 12:29:41;;;;;;;4.40;2.92;;;30.40;78.40;;;;;;6272131;22;20501;-68
2023/08/25 12:32:28;;;;;;;4.38;3.47;;;30.40;78.30;;;;;;6270310;22;20045;-69
2023/08/25 12:35:14;;;;;;;8.27;3.50;;;30.40;78.80;;;;;;6268891;22;20015;-69
2023/08/25 12:38:00;;;;;;;6.60;3.13;;;30.40;78.70;;;;;;6268672;22;20433;-68
2023/08/25 12:40:46;;;;;;;5.82;2.80;;;30.50;78.50;;;;;;6267949;22;20020;-68
2023/08/25 12:43:35;;;;;;;4.40;3.33;;;30.40;79.30;;;;;;6274179;22;20449;-67
2023/08/25 12:46:22;;;;;;;5.55;3.15;;;30.40;79.10;;;;;;6272137;22;20035;-68
2023/08/25 12:49:08;;;;;;;5.28;3.00;;;30.30;78.20;;;;;;6252158;22;20140;-68
2023/08/25 12:51:54;;;;;;;4.13;3.00;;;30.30;78.50;;;;;;6273082;22;20077;-68
2023/08/25 12:54:40;;;;;;;4.60;3.20;;;30.30;78.40;;;;;;6275006;22;20437;-68
2023/08/25 12:57:26;;;;;;;3.67;2.40;;;30.20;78.30;;;;;;6274109;22;20017;-68
2023/08/25 13:00:12;;;;;;;6.75;4.00;;;30.20;79.00;;;;;;6274337;22;20015;-69
2023/08/25 13:03:00;;;;;;;10.00;4.45;;;30.10;78.80;;;;;;6273763;22;20349;-69
2023/08/25 13:05:47;;;;;;;9.13;5.03;;;30.10;78.50;;;;;;6251653;22;20066;-68
2023/08/25 13:08:33;;;;;;;8.10;5.38;;;30.10;78.90;;;;;;6273717;22;20012;-68
2023/08/25 13:11:19;;;;;;;15.23;5.47;;;30.10;79.00;;;;;;6274509;22;20536;-70
2023/08/25 13:14:09;;;;;;;8.30;5.32;;;30.00;78.80;;;;;;6279763;22;20500;-71
2023/08/25 13:16:55;;;;;;;8.52;3.92;;;30.00;78.90;;;;;;6276169;22;20007;-69
2023/08/25 13:19:41;;;;;;;5.30;3.88;;;29.90;79.00;;;;;;6274669;22;20437;-69
2023/08/25 13:22:27;;;;;;;10.73;3.17;;;29.90;79.30;;;;;;6272721;22;20016;-70
2023/08/25 13:25:13;;;;;;;4.25;2.95;;;29.80;79.50;;;;;;6274376;22;20011;-70
2023/08/25 13:27:59;;;;;;;4.53;3.33;;;29.70;80.30;;;;;;6273174;22;20012;-69
2023/08/25 13:30:45;;;;;;;5.57;3.60;;;29.50;80.80;;;;;;6274466;22;20337;-69
2023/08/25 13:33:31;;;;;;;8.73;3.47;;;29.40;82.10;;;;;;6273945;22;20019;-69
2023/08/25 13:36:19;;;;;;;4.63;3.28;;;29.40;83.60;;;;;;6273232;22;20016;-69
2023/08/25 13:39:05;;;;;;;8.73;3.85;;;29.30;84.20;;;;;;6273571;22;20012;-69
2023/08/25 13:41:51;;;;;;;5.30;3.70;;;29.30;84.70;;;;;;6274007;22;20765;-69
2023/08/25 13:44:38;;;;;;;7.43;3.78;;;29.30;85.10;;;;;;6275318;22;20043;-69
2023/08/25 13:47:24;;;;;;;5.82;3.40;;;29.30;85.40;;;;;;6271765;22;20090;-69
2023/08/25 13:50:10;;;;;;;5.63;3.53;;;29.30;85.60;;;;;;6273964;22;20014;-69
2023/08/25 13:52:56;;;;;;;12.50;3.85;;;29.30;85.80;;;;;;6271918;22;20027;-69
2023/08/25 13:55:42;;;;;;;9.73;4.40;;;29.30;86.30;;;;;;6274272;22;20468;-69
2023/08/25 13:58:28;;;;;;;6.07;4.30;;;29.20;86.90;;;;;;6273584;22;20477;-69
2023/08/25 14:01:15;;;;;;;6.75;3.75;;;29.10;87.40;;;;;;6271134;22;20039;-66
2023/08/25 14:04:01;;;;;;;7.75;4.60;;;29.00;88.40;;;;;;6271928;22;20015;-70
2023/08/25 14:06:47;;;;;;;6.10;4.25;;;28.90;89.40;;;;;;6271455;22;20018;-67
2023/08/25 14:09:33;;;;;;;9.57;4.53;;;28.80;89.80;;;;;;6274001;22;20012;-67
2023/08/25 14:12:19;;;;;;;6.22;4.00;;;28.70;90.00;;;;;;6274119;22;20111;-68
2023/08/25 14:15:06;;;;;;;8.98;4.57;;;28.60;90.60;;;;;;6274179;22;20014;-68
2023/08/25 14:17:52;;;;;;;7.28;4.20;;;28.60;91.00;;;;;;6273882;22;20016;-68
2023/08/25 14:20:38;;;;;;;7.45;4.63;;;28.50;91.10;;;;;;6273178;22;20348;-68
2023/08/25 14:23:24;;;;;;;6.85;4.15;;;28.40;91.00;;;;;;6271670;22;20451;-68
2023/08/25 14:26:11;;;;;;;10.52;4.60;;;28.40;91.30;;;;;;6272154;22;20015;-68
2023/08/25 14:28:56;;;;;;;7.38;4.25;;;28.30;91.30;;;;;;6250323;22;20012;-68